SYNOP

Station Code SYNOP
43555
AAXX 24034 43555 42465 52912 10301 20251 30115 40117 84200 333 20238 59002 84817 555 10623=
43533
AAXX 24034 43533 42460 72909 10293 20258 30115 40117 82238 333 20270 58007 82818 87276 555 10735=
43577
AAXX 24034 43577 41462 72503 10287 20246 30125 40127 70282 84938 333 20225 59007 82817 82918 83363 87275 555 10799=
43588
AAXX 24034 43588 42462 72705 10298 20243 30123 40124 82232 333 20240 59019 82818 83362 86376 555 10775=
43599
AAXX 24034 43599 42460 72305 10298 20252 30123 40125 82232 333 20243 59010 82818 83363 87076 555 11159 =
Last Updated : 2021-06-24 07:59:05